الصفحة الرئيسية
METAR-TAF:

METAR-TAF

مطار :

سانتو دومينجو, جمهورية الدومنيكان

دائرة عرض: 18-34-32N, خط طول: 069-58-53W, ارتفاع: 15 متر

مراقبة الطقس الحالي

تاريخ ووقت الإصدار 49 دقيقة قبل الساعة 18:00UTC
ريح 12 عقدة من الشمال
درجة الحرارة 28°درجة مئوية
الرطوبة 70%
ضغط 1014 hPa
الرؤية 10 كم أو أكثر
غيوم متفرقة على ارتفاع 1800 قدم
غيوم متفرقة على ارتفاع 7000 قدم

METAR: MDJB 211800Z 36012KT 9999 SCT018 SCT070 28/22 Q1014

زمن: 14:49 (18:49 UTC)

توقعات

تاريخ ووقت الإصدار 2ساعات و 49 دقيقة قبل الساعة 16:00UTC
التوقعات صالحة من21 الساعة 18 UTC إلى 22 الساعة 18 UTC
ريح 10 عقدة من الشمال
الرؤية 10 كم أو أكثر
غيوم متفرقة على ارتفاع 2000 قدم
غيوم متفرقة على ارتفاع 7000 قدم
نظرية الاحتمالات 30%
من 20 الساعة 18 UTC إلى 20 الساعة 22 UTC
الرؤية: 7000 متر
غيوم مفككة على ارتفاع 1600 قدم
غيوم مفككة على ارتفاع 7000 قدم
مطر خفيف,

TAF: MDJB 211600Z 2118/2218 36010KT 9999 SCT020 SCT070 PROB30 2018/2022 7000 -RA BKN016 BKN070

أرصاد الطقس والتوقعات من أكثر من 4000 مطار (تقارير الطقس للمطار METAR والتنبؤ بالطقس بالمطارTAF).

المحطات المتاحة هي النقط الصفراء والحمراء على الخريطة.

حرك المؤشر فوق النقطة لمعرفة اسم المحطة.

ثم انقر لمعرفة أرصاد وتوقعات الطقس.

لتغيير الخارطة: اضغط على الأزرار الخضراء مع رمز الصليب الأسود للتكبير. على الزر الأخضر مع شرطة للتصغير، أو على الأسهم الخضراء للخرائط المجاورة.


METAR-TAF: